ADDS METAR Data INFO
IDs: Format: Raw Decoded Include TAF

Data at: 1859 UTC 22 Sep 2017

METAR for:KCRP (Corpus Christi Intl, TX, US)
Text:KCRP 221851Z 15012KT 10SM FEW032 FEW037 SCT048 SCT150 SCT250 33/22 A2990 RMK AO2 SLP123 CB DSNT N NE E SE S SW MOV NW TCU DSNT W T03330217
Temperature: 33.3°C ( 92°F)
Dewpoint: 21.7°C ( 71°F) [RH = 51%]
Pressure (altimeter):29.90 inches Hg (1012.6 mb) [Sea level pressure: 1012.3 mb]
Winds:from the SSE (150 degrees) at 14 MPH (12 knots; 6.2 m/s)
Visibility:10 or more sm (16+ km)
Ceiling:at least 12,000 feet AGL
Clouds: few clouds at 3200 feet AGL, few clouds at 3700 feet AGL, scattered clouds at 4800 feet AGL, scattered clouds at 15000 feet AGL